METAR AND TAF INFORMATION
METAR FOR EDDE
ADDS - METARS form results

(2111 UTC 12 August 2020)
Data provider http://aviationweather.gov/metar/data/
 
METAR text: EDDE 122050Z 19006KT CAVOK 21/17 Q1016
Conditions at: EDDE (ERFURT/BINDERSLE, DE) observed 2050 UTC 12 August 2020
Temperature: 21.0°C (70°F)
Dewpoint: 17.0°C (63°F) [RH = 78%]
Pressure (altimeter): 30.00 inches Hg (1016.0 mb)
Winds: from the S (190 degrees) at 7 MPH (6 knots; 3.1 m/s)
Visibility: 6 or more miles (10+ km)
Ceiling: ceiling and visibility are OK
Clouds: unknown
Weather: no significant weather observed at this time

METAR text: EDDE 122020Z 18007KT CAVOK 22/17 Q1016
Conditions at: EDDE (ERFURT/BINDERSLE, DE) observed 2020 UTC 12 August 2020
Temperature: 22.0°C (72°F)
Dewpoint: 17.0°C (63°F) [RH = 73%]
Pressure (altimeter): 30.00 inches Hg (1016.0 mb)
Winds: from the S (180 degrees) at 8 MPH (7 knots; 3.6 m/s)
Visibility: 6 or more miles (10+ km)
Ceiling: ceiling and visibility are OK
Clouds: unknown
Weather: no significant weather observed at this time

Forecast for: EDDE (ERFURT/BINDERSLE, DE)
Text: TAF EDDE 121700Z 1218/1318 14005KT CAVOK
Forecast period: 1800 UTC 12 August 2020 to 1800 UTC 13 August 2020
Forecast type: FROM: standard forecast or significant change
Winds: from the SE (140 degrees) at 6 MPH (5 knots; 2.6 m/s)
Visibility: 6 or more miles (10+ km)
Ceiling: unknown
Clouds: missing
Weather: NSW  (no significant weather)
Text: PROB30
Forecast period: 0400 to 1200 UTC 13 August 2020
Forecast type: TEMPORARY: The following changes expected for less than half the time period
Visibility: missing
Ceiling: 4000 feet AGL
Clouds: broken clouds at 4000 feet AGL
Weather: SHRA  (rain showers)
Text: TEMPO 1304/1312 SHRA BKN040CB
Forecast period: 1200 to 1800 UTC 13 August 2020
Forecast type: TEMPORARY: The following changes expected for less than half the time period
Winds: from the SSE (150 degrees) at 23 MPH (20 knots; 10.3 m/s)
gusting to 40 MPH (35 knots; 18.0 m/s)
Visibility: 2.49 miles (4.01 km)
Ceiling: 3000 feet AGL
Clouds: broken clouds at 3000 feet AGL
Weather: TSRA  (rain associated with thunderstorm(s))

 AIRPORT MAP

 RUNWAY INFORMATION
Runway 10 Runway length 8530 ft Runway width 164 ft
Runway elevation 1025 ft Runway displaced threshold 0 ft Runway heading 98
Runway 28 Runway length 8530 ft Runway width 164 ft
Runway elevation 1016 ft Runway displaced threshold 689 ft Runway heading 278

 AIRPORT FREQUENCIES
Type APP Name MUNCHEN RA Frequency 132.3 MHZ
Type ATIS Name ATIS Frequency 133.45 MHZ
Type GND Name GND Frequency 121.75 MHZ
Type INFO Name MUNCHEN IN Frequency 120.65 MHZ
Type RMP Name APRON Frequency 121.9 MHZ
Type TWR Name TWR Frequency 121.15 MHZ

 AIRPORT NEAR NAVIGATION AIDS
Type DME Name Erfurt Frequency 112050 KHZ
Type VOR-DME Name Erfurt Frequency 113850 KHZ
Type NDB Name Erfurt Frequency 425 KHZ



Powered by Virtual Airlines Manager [v2.6.2]